Weather, Runways
& NOTAMs

CYYZ - Toronto-Lester B. Pearson International
CYYZ 051000Z 36015KT 15SM OVC012 01/M01 A2991 RMK SC8 SLP135
Suggested Runways: Departures: 06L, Arrivals: 05
CYOW - Ottawa Macdonald-Cartier International
CYOW 051000Z 05004KT 8SM FEW005 SCT015 OVC032 00/00 A2990 RMK SF1SC4SC4 SF TR SLP131
Suggested Runway: 07
CYTZ - Billy Bishop Toronto City
CYTZ 051002Z AUTO 36005G15KT 300V020 9SM BKN018 OVC070 02/M01 A2992 RMK SLP134
Suggested Runway: 08
CYXU - London International
CYXU 051024Z 34006KT 15SM FEW007 FEW022 OVC058 01/M00 A2993 RMK ST1SC1SC6 SLP147
Suggested Runway: 33
CYHM - John C. Munro Hamilton International
CYHM 051000Z 36006KT 15SM FEW015 FEW062 M00/M02 A2990 RMK SC1SC1 SLP137
Suggested Runway: 30
CYKF - Region of Waterloo International
CYKF 051004Z AUTO 32009KT 9SM SCT013 M01/M03 A2990 RMK SLP139
Suggested Runway: 26
CYAM - Sault Ste. Marie
CYAM 051000Z 05004KT 20SM SCT018 SCT160 M07/M10 A3012 RMK CU3AS1 FROIN SLP212
Suggested Runway: 04
CYTR - Canadian Forces Base Trenton
CYTR 051045Z 36005KT 5SM BR BKN018 01/01 A2990 RMK SC6 FST STFD OBS SLP128
Suggested Runway: 06
CYOO - Toronto/Oshawa Executive
CYOO 051046Z AUTO 35007KT 9SM SCT008 BKN017 01/01 A2990 RMK SLP133
Suggested Runway: 30

NOTAMs